sensor_id;sensor_type;location;lat;lon;timestamp;temperature;humidity
20698;DHT22;10508;50.956;4.640;2023-02-22T00:00:36;6.40;99.90
20698;DHT22;10508;50.956;4.640;2023-02-22T00:05:35;6.50;99.90
20698;DHT22;10508;50.956;4.640;2023-02-22T00:08:04;6.40;99.90
20698;DHT22;10508;50.956;4.640;2023-02-22T00:10:33;6.40;99.90
20698;DHT22;10508;50.956;4.640;2023-02-22T00:12:59;6.40;99.90
20698;DHT22;10508;50.956;4.640;2023-02-22T00:15:25;6.40;99.90
20698;DHT22;10508;50.956;4.640;2023-02-22T00:17:54;6.30;99.90
20698;DHT22;10508;50.956;4.640;2023-02-22T00:20:20;6.30;99.90
20698;DHT22;10508;50.956;4.640;2023-02-22T00:22:48;6.30;99.90
20698;DHT22;10508;50.956;4.640;2023-02-22T00:25:17;6.40;99.90
20698;DHT22;10508;50.956;4.640;2023-02-22T00:27:45;6.40;99.90
20698;DHT22;10508;50.956;4.640;2023-02-22T00:30:21;6.50;99.90
20698;DHT22;10508;50.956;4.640;2023-02-22T00:32:48;6.40;99.90
20698;DHT22;10508;50.956;4.640;2023-02-22T00:35:16;6.50;99.90
20698;DHT22;10508;50.956;4.640;2023-02-22T00:37:45;6.40;99.90
20698;DHT22;10508;50.956;4.640;2023-02-22T00:40:15;6.40;99.90
20698;DHT22;10508;50.956;4.640;2023-02-22T00:42:40;6.30;99.90
20698;DHT22;10508;50.956;4.640;2023-02-22T00:45:06;6.20;99.90
20698;DHT22;10508;50.956;4.640;2023-02-22T00:47:32;6.00;99.90
20698;DHT22;10508;50.956;4.640;2023-02-22T00:49:58;6.00;99.90
20698;DHT22;10508;50.956;4.640;2023-02-22T00:52:25;6.00;99.90
20698;DHT22;10508;50.956;4.640;2023-02-22T00:54:52;6.00;99.90
20698;DHT22;10508;50.956;4.640;2023-02-22T00:57:18;6.10;99.90
20698;DHT22;10508;50.956;4.640;2023-02-22T00:59:43;6.10;99.90
20698;DHT22;10508;50.956;4.640;2023-02-22T01:02:09;6.10;99.90
20698;DHT22;10508;50.956;4.640;2023-02-22T01:04:35;6.10;99.90
20698;DHT22;10508;50.956;4.640;2023-02-22T01:07:00;6.10;99.90
20698;DHT22;10508;50.956;4.640;2023-02-22T01:09:26;6.20;99.90
20698;DHT22;10508;50.956;4.640;2023-02-22T01:11:53;6.10;99.90
20698;DHT22;10508;50.956;4.640;2023-02-22T01:14:20;6.00;99.90
20698;DHT22;10508;50.956;4.640;2023-02-22T01:16:47;6.00;99.90
20698;DHT22;10508;50.956;4.640;2023-02-22T01:19:12;6.00;99.90
20698;DHT22;10508;50.956;4.640;2023-02-22T01:21:41;5.90;99.90
20698;DHT22;10508;50.956;4.640;2023-02-22T01:24:07;5.80;99.90
20698;DHT22;10508;50.956;4.640;2023-02-22T01:26:33;5.90;99.90
20698;DHT22;10508;50.956;4.640;2023-02-22T01:28:58;5.80;99.90
20698;DHT22;10508;50.956;4.640;2023-02-22T01:31:24;5.80;99.90
20698;DHT22;10508;50.956;4.640;2023-02-22T01:33:50;5.80;99.90
20698;DHT22;10508;50.956;4.640;2023-02-22T01:36:16;5.70;99.90
20698;DHT22;10508;50.956;4.640;2023-02-22T01:38:44;5.60;99.90
20698;DHT22;10508;50.956;4.640;2023-02-22T01:41:10;5.50;99.90
20698;DHT22;10508;50.956;4.640;2023-02-22T01:43:36;5.40;99.90
20698;DHT22;10508;50.956;4.640;2023-02-22T01:46:20;5.50;99.90
20698;DHT22;10508;50.956;4.640;2023-02-22T01:51:36;5.60;99.90
20698;DHT22;10508;50.956;4.640;2023-02-22T01:54:14;5.40;99.90
20698;DHT22;10508;50.956;4.640;2023-02-22T01:56:50;5.50;99.90
20698;DHT22;10508;50.956;4.640;2023-02-22T01:59:20;5.50;99.90
20698;DHT22;10508;50.956;4.640;2023-02-22T02:01:46;5.50;99.90
20698;DHT22;10508;50.956;4.640;2023-02-22T02:04:22;5.50;99.90
20698;DHT22;10508;50.956;4.640;2023-02-22T02:06:51;5.50;99.90
20698;DHT22;10508;50.956;4.640;2023-02-22T02:09:26;5.50;99.90
20698;DHT22;10508;50.956;4.640;2023-02-22T02:11:57;5.40;99.90
20698;DHT22;10508;50.956;4.640;2023-02-22T02:14:25;5.40;99.90
20698;DHT22;10508;50.956;4.640;2023-02-22T02:16:52;5.40;99.90
20698;DHT22;10508;50.956;4.640;2023-02-22T02:19:40;5.40;99.90
20698;DHT22;10508;50.956;4.640;2023-02-22T02:33:43;5.40;99.90
20698;DHT22;10508;50.956;4.640;2023-02-22T02:36:30;5.30;99.90
20698;DHT22;10508;50.956;4.640;2023-02-22T02:41:39;5.30;99.90
20698;DHT22;10508;50.956;4.640;2023-02-22T02:44:19;5.20;99.90
20698;DHT22;10508;50.956;4.640;2023-02-22T02:49:30;5.30;99.90
20698;DHT22;10508;50.956;4.640;2023-02-22T02:51:59;5.30;99.90
20698;DHT22;10508;50.956;4.640;2023-02-22T02:54:27;5.20;99.90
20698;DHT22;10508;50.956;4.640;2023-02-22T02:56:55;5.20;99.90
20698;DHT22;10508;50.956;4.640;2023-02-22T02:59:40;5.20;99.90
20698;DHT22;10508;50.956;4.640;2023-02-22T03:07:40;5.20;99.90
20698;DHT22;10508;50.956;4.640;2023-02-22T03:13:33;5.10;99.90
20698;DHT22;10508;50.956;4.640;2023-02-22T03:19:07;5.10;99.90
20698;DHT22;10508;50.956;4.640;2023-02-22T03:21:55;5.10;99.90
20698;DHT22;10508;50.956;4.640;2023-02-22T03:24:38;5.20;99.90
20698;DHT22;10508;50.956;4.640;2023-02-22T03:27:22;5.20;99.90
20698;DHT22;10508;50.956;4.640;2023-02-22T03:29:52;5.10;99.90
20698;DHT22;10508;50.956;4.640;2023-02-22T03:32:24;5.00;99.90
20698;DHT22;10508;50.956;4.640;2023-02-22T03:34:55;5.00;99.90
20698;DHT22;10508;50.956;4.640;2023-02-22T03:37:29;5.10;99.90
20698;DHT22;10508;50.956;4.640;2023-02-22T03:39:59;5.00;99.90
20698;DHT22;10508;50.956;4.640;2023-02-22T03:42:29;5.00;99.90
20698;DHT22;10508;50.956;4.640;2023-02-22T03:44:58;5.00;99.90
20698;DHT22;10508;50.956;4.640;2023-02-22T03:47:41;5.00;99.90
20698;DHT22;10508;50.956;4.640;2023-02-22T03:50:17;5.10;99.90
20698;DHT22;10508;50.956;4.640;2023-02-22T03:52:43;5.00;99.90
20698;DHT22;10508;50.956;4.640;2023-02-22T03:55:10;5.10;99.90
20698;DHT22;10508;50.956;4.640;2023-02-22T03:57:40;5.00;99.90
20698;DHT22;10508;50.956;4.640;2023-02-22T04:00:10;4.90;99.90
20698;DHT22;10508;50.956;4.640;2023-02-22T04:02:36;4.90;99.90
20698;DHT22;10508;50.956;4.640;2023-02-22T04:05:02;4.90;99.90
20698;DHT22;10508;50.956;4.640;2023-02-22T04:07:28;4.90;99.90
20698;DHT22;10508;50.956;4.640;2023-02-22T04:09:54;4.90;99.90
20698;DHT22;10508;50.956;4.640;2023-02-22T04:12:19;4.80;99.90
20698;DHT22;10508;50.956;4.640;2023-02-22T04:14:45;4.80;99.90
20698;DHT22;10508;50.956;4.640;2023-02-22T04:17:10;4.80;99.90
20698;DHT22;10508;50.956;4.640;2023-02-22T04:19:36;4.80;99.90
20698;DHT22;10508;50.956;4.640;2023-02-22T04:22:01;4.70;99.90
20698;DHT22;10508;50.956;4.640;2023-02-22T04:24:27;4.70;99.90
20698;DHT22;10508;50.956;4.640;2023-02-22T04:26:53;4.70;99.90
20698;DHT22;10508;50.956;4.640;2023-02-22T04:29:19;4.80;99.90
20698;DHT22;10508;50.956;4.640;2023-02-22T04:31:45;4.80;99.90
20698;DHT22;10508;50.956;4.640;2023-02-22T04:34:11;4.70;99.90
20698;DHT22;10508;50.956;4.640;2023-02-22T04:36:36;4.70;99.90
20698;DHT22;10508;50.956;4.640;2023-02-22T04:39:02;4.80;99.90
20698;DHT22;10508;50.956;4.640;2023-02-22T04:41:47;4.70;99.90
20698;DHT22;10508;50.956;4.640;2023-02-22T04:44:13;4.70;99.90
20698;DHT22;10508;50.956;4.640;2023-02-22T04:46:39;4.80;99.90
20698;DHT22;10508;50.956;4.640;2023-02-22T04:49:04;4.70;99.90
20698;DHT22;10508;50.956;4.640;2023-02-22T04:51:30;4.70;99.90
20698;DHT22;10508;50.956;4.640;2023-02-22T04:53:56;4.60;99.90
20698;DHT22;10508;50.956;4.640;2023-02-22T04:56:22;4.60;99.90
20698;DHT22;10508;50.956;4.640;2023-02-22T04:58:48;4.60;99.90
20698;DHT22;10508;50.956;4.640;2023-02-22T05:01:14;4.60;99.90
20698;DHT22;10508;50.956;4.640;2023-02-22T05:03:41;4.60;99.90
20698;DHT22;10508;50.956;4.640;2023-02-22T05:06:07;4.60;99.90
20698;DHT22;10508;50.956;4.640;2023-02-22T05:08:33;4.60;99.90
20698;DHT22;10508;50.956;4.640;2023-02-22T05:10:58;4.60;99.90
20698;DHT22;10508;50.956;4.640;2023-02-22T05:13:24;4.60;99.90
20698;DHT22;10508;50.956;4.640;2023-02-22T05:15:50;4.50;99.90
20698;DHT22;10508;50.956;4.640;2023-02-22T05:18:16;4.70;99.90
20698;DHT22;10508;50.956;4.640;2023-02-22T05:20:41;4.70;99.90
20698;DHT22;10508;50.956;4.640;2023-02-22T05:23:07;4.70;99.90
20698;DHT22;10508;50.956;4.640;2023-02-22T05:25:33;4.60;99.90
20698;DHT22;10508;50.956;4.640;2023-02-22T05:28:01;4.60;99.90
20698;DHT22;10508;50.956;4.640;2023-02-22T05:30:30;4.60;99.90
20698;DHT22;10508;50.956;4.640;2023-02-22T05:32:56;4.50;99.90
20698;DHT22;10508;50.956;4.640;2023-02-22T05:35:24;4.50;99.90
20698;DHT22;10508;50.956;4.640;2023-02-22T05:37:50;4.50;99.90
20698;DHT22;10508;50.956;4.640;2023-02-22T05:40:21;4.50;99.90
20698;DHT22;10508;50.956;4.640;2023-02-22T05:42:48;4.60;99.90
20698;DHT22;10508;50.956;4.640;2023-02-22T05:45:15;4.60;99.90
20698;DHT22;10508;50.956;4.640;2023-02-22T05:47:41;4.40;99.90
20698;DHT22;10508;50.956;4.640;2023-02-22T05:50:07;4.40;99.90
20698;DHT22;10508;50.956;4.640;2023-02-22T05:52:33;4.50;99.90
20698;DHT22;10508;50.956;4.640;2023-02-22T05:55:20;4.50;99.90
20698;DHT22;10508;50.956;4.640;2023-02-22T05:57:46;4.50;99.90
20698;DHT22;10508;50.956;4.640;2023-02-22T06:00:18;4.50;99.90
20698;DHT22;10508;50.956;4.640;2023-02-22T06:02:44;4.40;99.90
20698;DHT22;10508;50.956;4.640;2023-02-22T06:05:09;4.40;99.90
20698;DHT22;10508;50.956;4.640;2023-02-22T06:07:35;4.40;99.90
20698;DHT22;10508;50.956;4.640;2023-02-22T06:10:01;4.30;99.90
20698;DHT22;10508;50.956;4.640;2023-02-22T06:12:26;4.30;99.90
20698;DHT22;10508;50.956;4.640;2023-02-22T06:14:52;4.30;99.90
20698;DHT22;10508;50.956;4.640;2023-02-22T06:17:18;4.20;99.90
20698;DHT22;10508;50.956;4.640;2023-02-22T06:19:43;4.20;99.90
20698;DHT22;10508;50.956;4.640;2023-02-22T06:22:17;4.20;99.90
20698;DHT22;10508;50.956;4.640;2023-02-22T06:24:43;4.30;99.90
20698;DHT22;10508;50.956;4.640;2023-02-22T06:27:08;4.40;99.90
20698;DHT22;10508;50.956;4.640;2023-02-22T06:29:34;4.40;99.90
20698;DHT22;10508;50.956;4.640;2023-02-22T06:32:00;4.40;99.90
20698;DHT22;10508;50.956;4.640;2023-02-22T06:34:25;4.40;99.90
20698;DHT22;10508;50.956;4.640;2023-02-22T06:36:51;4.30;99.90
20698;DHT22;10508;50.956;4.640;2023-02-22T06:39:17;4.30;99.90
20698;DHT22;10508;50.956;4.640;2023-02-22T06:41:44;4.40;99.90
20698;DHT22;10508;50.956;4.640;2023-02-22T06:44:11;4.40;99.90
20698;DHT22;10508;50.956;4.640;2023-02-22T06:46:37;4.50;99.90
20698;DHT22;10508;50.956;4.640;2023-02-22T06:49:03;4.40;99.90
20698;DHT22;10508;50.956;4.640;2023-02-22T06:51:30;4.40;99.90
20698;DHT22;10508;50.956;4.640;2023-02-22T06:54:00;4.40;99.90
20698;DHT22;10508;50.956;4.640;2023-02-22T06:56:25;4.40;99.90
20698;DHT22;10508;50.956;4.640;2023-02-22T06:58:51;4.30;99.90
20698;DHT22;10508;50.956;4.640;2023-02-22T07:01:16;4.50;99.90
20698;DHT22;10508;50.956;4.640;2023-02-22T07:03:42;4.50;99.90
20698;DHT22;10508;50.956;4.640;2023-02-22T07:06:08;4.40;99.90
20698;DHT22;10508;50.956;4.640;2023-02-22T07:08:35;4.40;99.90
20698;DHT22;10508;50.956;4.640;2023-02-22T07:11:00;4.50;99.90
20698;DHT22;10508;50.956;4.640;2023-02-22T07:13:26;4.60;99.90
20698;DHT22;10508;50.956;4.640;2023-02-22T07:15:52;4.60;99.90
20698;DHT22;10508;50.956;4.640;2023-02-22T07:18:18;4.60;99.90
20698;DHT22;10508;50.956;4.640;2023-02-22T07:20:43;4.50;99.90
20698;DHT22;10508;50.956;4.640;2023-02-22T07:23:12;4.50;99.90
20698;DHT22;10508;50.956;4.640;2023-02-22T07:25:38;4.50;99.90
20698;DHT22;10508;50.956;4.640;2023-02-22T07:28:03;4.60;99.90
20698;DHT22;10508;50.956;4.640;2023-02-22T07:30:31;4.50;99.90
20698;DHT22;10508;50.956;4.640;2023-02-22T07:33:01;4.60;99.90
20698;DHT22;10508;50.956;4.640;2023-02-22T07:35:32;4.60;99.90
20698;DHT22;10508;50.956;4.640;2023-02-22T07:37:58;4.60;99.90
20698;DHT22;10508;50.956;4.640;2023-02-22T07:40:25;4.70;99.90
20698;DHT22;10508;50.956;4.640;2023-02-22T07:45:21;4.70;99.90
20698;DHT22;10508;50.956;4.640;2023-02-22T07:47:48;4.70;99.90
20698;DHT22;10508;50.956;4.640;2023-02-22T07:50:15;4.70;99.90
20698;DHT22;10508;50.956;4.640;2023-02-22T07:52:46;4.80;99.90
20698;DHT22;10508;50.956;4.640;2023-02-22T07:55:14;4.90;99.90
20698;DHT22;10508;50.956;4.640;2023-02-22T07:57:42;4.90;99.90
20698;DHT22;10508;50.956;4.640;2023-02-22T08:00:09;5.00;99.90
20698;DHT22;10508;50.956;4.640;2023-02-22T08:02:35;5.10;99.90
20698;DHT22;10508;50.956;4.640;2023-02-22T08:05:00;5.10;99.90
20698;DHT22;10508;50.956;4.640;2023-02-22T08:07:26;5.20;99.90
20698;DHT22;10508;50.956;4.640;2023-02-22T08:09:51;5.20;99.90
20698;DHT22;10508;50.956;4.640;2023-02-22T08:12:17;5.30;99.90
20698;DHT22;10508;50.956;4.640;2023-02-22T08:14:43;5.40;99.90
20698;DHT22;10508;50.956;4.640;2023-02-22T08:17:08;5.50;99.90
20698;DHT22;10508;50.956;4.640;2023-02-22T08:19:34;5.60;99.90
20698;DHT22;10508;50.956;4.640;2023-02-22T08:22:00;5.70;99.90
20698;DHT22;10508;50.956;4.640;2023-02-22T08:24:25;5.80;99.90
20698;DHT22;10508;50.956;4.640;2023-02-22T08:26:51;5.90;99.90
20698;DHT22;10508;50.956;4.640;2023-02-22T08:29:16;5.90;99.90
20698;DHT22;10508;50.956;4.640;2023-02-22T08:31:49;6.10;99.90
20698;DHT22;10508;50.956;4.640;2023-02-22T08:34:15;6.30;99.90
20698;DHT22;10508;50.956;4.640;2023-02-22T08:36:41;6.30;99.90
20698;DHT22;10508;50.956;4.640;2023-02-22T08:39:07;6.40;99.90
20698;DHT22;10508;50.956;4.640;2023-02-22T08:41:32;6.40;99.90
20698;DHT22;10508;50.956;4.640;2023-02-22T08:43:58;6.50;99.90
20698;DHT22;10508;50.956;4.640;2023-02-22T08:46:27;6.60;99.90
20698;DHT22;10508;50.956;4.640;2023-02-22T08:48:52;6.70;99.90
20698;DHT22;10508;50.956;4.640;2023-02-22T08:51:19;6.70;99.90
20698;DHT22;10508;50.956;4.640;2023-02-22T08:53:45;6.80;99.90
20698;DHT22;10508;50.956;4.640;2023-02-22T08:56:10;6.90;99.90
20698;DHT22;10508;50.956;4.640;2023-02-22T08:58:36;7.00;99.90
20698;DHT22;10508;50.956;4.640;2023-02-22T09:01:02;7.10;99.90
20698;DHT22;10508;50.956;4.640;2023-02-22T09:03:27;7.20;99.90
20698;DHT22;10508;50.956;4.640;2023-02-22T09:05:53;7.40;99.90
20698;DHT22;10508;50.956;4.640;2023-02-22T09:08:19;7.40;99.90
20698;DHT22;10508;50.956;4.640;2023-02-22T09:10:45;7.50;99.90
20698;DHT22;10508;50.956;4.640;2023-02-22T09:13:11;7.50;99.90
20698;DHT22;10508;50.956;4.640;2023-02-22T09:15:37;7.60;99.90
20698;DHT22;10508;50.956;4.640;2023-02-22T09:18:06;7.70;99.90
20698;DHT22;10508;50.956;4.640;2023-02-22T09:20:35;7.80;99.90
20698;DHT22;10508;50.956;4.640;2023-02-22T09:23:02;7.90;99.90
20698;DHT22;10508;50.956;4.640;2023-02-22T09:25:28;7.80;99.90
20698;DHT22;10508;50.956;4.640;2023-02-22T09:27:55;7.90;99.90
20698;DHT22;10508;50.956;4.640;2023-02-22T09:30:35;7.90;99.90
20698;DHT22;10508;50.956;4.640;2023-02-22T09:33:12;7.90;99.90
20698;DHT22;10508;50.956;4.640;2023-02-22T09:35:39;8.00;99.90
20698;DHT22;10508;50.956;4.640;2023-02-22T09:38:12;8.10;99.90
20698;DHT22;10508;50.956;4.640;2023-02-22T09:40:45;8.10;99.90
20698;DHT22;10508;50.956;4.640;2023-02-22T09:43:36;8.20;99.90
20698;DHT22;10508;50.956;4.640;2023-02-22T09:46:17;8.20;99.90
20698;DHT22;10508;50.956;4.640;2023-02-22T09:51:24;8.30;99.90
20698;DHT22;10508;50.956;4.640;2023-02-22T09:53:55;8.30;99.90
20698;DHT22;10508;50.956;4.640;2023-02-22T09:56:23;8.30;99.90
20698;DHT22;10508;50.956;4.640;2023-02-22T09:58:53;8.30;99.90
20698;DHT22;10508;50.956;4.640;2023-02-22T10:01:36;8.40;99.90
20698;DHT22;10508;50.956;4.640;2023-02-22T10:04:10;8.30;99.90
20698;DHT22;10508;50.956;4.640;2023-02-22T10:06:38;8.30;99.90
20698;DHT22;10508;50.956;4.640;2023-02-22T10:09:08;8.40;99.90
20698;DHT22;10508;50.956;4.640;2023-02-22T10:25:01;8.60;99.90
20698;DHT22;10508;50.956;4.640;2023-02-22T10:30:29;8.70;99.90
20698;DHT22;10508;50.956;4.640;2023-02-22T10:35:40;8.70;99.90
20698;DHT22;10508;50.956;4.640;2023-02-22T10:38:13;8.80;99.90
20698;DHT22;10508;50.956;4.640;2023-02-22T10:40:50;8.80;99.90
20698;DHT22;10508;50.956;4.640;2023-02-22T10:43:19;8.90;99.90
20698;DHT22;10508;50.956;4.640;2023-02-22T10:45:45;8.90;99.90
20698;DHT22;10508;50.956;4.640;2023-02-22T10:48:14;8.90;99.90
20698;DHT22;10508;50.956;4.640;2023-02-22T10:50:44;9.00;99.90
20698;DHT22;10508;50.956;4.640;2023-02-22T10:53:10;9.10;99.90
20698;DHT22;10508;50.956;4.640;2023-02-22T10:58:54;9.20;99.90
20698;DHT22;10508;50.956;4.640;2023-02-22T11:01:32;9.30;99.90
20698;DHT22;10508;50.956;4.640;2023-02-22T11:06:40;9.50;99.90
20698;DHT22;10508;50.956;4.640;2023-02-22T11:09:08;9.60;99.90
20698;DHT22;10508;50.956;4.640;2023-02-22T11:11:39;9.70;99.90
20698;DHT22;10508;50.956;4.640;2023-02-22T11:14:06;9.80;99.90
20698;DHT22;10508;50.956;4.640;2023-02-22T11:16:51;9.90;99.90
20698;DHT22;10508;50.956;4.640;2023-02-22T11:19:25;9.90;99.90
20698;DHT22;10508;50.956;4.640;2023-02-22T11:24:27;10.00;99.90
20698;DHT22;10508;50.956;4.640;2023-02-22T11:26:59;10.20;99.90
20698;DHT22;10508;50.956;4.640;2023-02-22T11:29:36;10.20;99.90
20698;DHT22;10508;50.956;4.640;2023-02-22T11:32:14;10.40;99.90
20698;DHT22;10508;50.956;4.640;2023-02-22T11:34:45;10.50;99.90
20698;DHT22;10508;50.956;4.640;2023-02-22T11:40:12;10.50;99.90
20698;DHT22;10508;50.956;4.640;2023-02-22T11:42:36;10.40;99.90
20698;DHT22;10508;50.956;4.640;2023-02-22T11:45:20;10.40;99.90
20698;DHT22;10508;50.956;4.640;2023-02-22T11:53:16;10.40;99.90
20698;DHT22;10508;50.956;4.640;2023-02-22T12:06:54;10.40;99.90
20698;DHT22;10508;50.956;4.640;2023-02-22T12:09:33;10.40;99.90
20698;DHT22;10508;50.956;4.640;2023-02-22T12:15:07;10.60;99.90
20698;DHT22;10508;50.956;4.640;2023-02-22T12:23:52;10.80;99.90
20698;DHT22;10508;50.956;4.640;2023-02-22T12:25:56;10.80;99.90
20698;DHT22;10508;50.956;4.640;2023-02-22T12:28:31;10.90;99.90
20698;DHT22;10508;50.956;4.640;2023-02-22T12:31:22;10.90;99.90
20698;DHT22;10508;50.956;4.640;2023-02-22T12:34:36;11.00;99.90
20698;DHT22;10508;50.956;4.640;2023-02-22T12:36:46;11.10;99.90
20698;DHT22;10508;50.956;4.640;2023-02-22T12:39:47;11.20;99.90
20698;DHT22;10508;50.956;4.640;2023-02-22T12:43:07;11.20;99.90
20698;DHT22;10508;50.956;4.640;2023-02-22T12:45:11;11.20;99.90
20698;DHT22;10508;50.956;4.640;2023-02-22T12:48:37;11.20;99.90
20698;DHT22;10508;50.956;4.640;2023-02-22T12:50:45;11.30;99.90
20698;DHT22;10508;50.956;4.640;2023-02-22T12:55:42;11.30;99.90
20698;DHT22;10508;50.956;4.640;2023-02-22T12:58:26;11.40;99.90
20698;DHT22;10508;50.956;4.640;2023-02-22T13:01:18;11.40;99.90
20698;DHT22;10508;50.956;4.640;2023-02-22T13:03:45;11.50;99.90
20698;DHT22;10508;50.956;4.640;2023-02-22T13:06:37;11.40;99.90
20698;DHT22;10508;50.956;4.640;2023-02-22T13:15:07;11.50;99.90
20698;DHT22;10508;50.956;4.640;2023-02-22T13:18:02;11.40;99.90
20698;DHT22;10508;50.956;4.640;2023-02-22T13:23:12;11.50;99.90
20698;DHT22;10508;50.956;4.640;2023-02-22T13:28:45;11.60;99.90
20698;DHT22;10508;50.956;4.640;2023-02-22T13:31:30;11.60;99.90
20698;DHT22;10508;50.956;4.640;2023-02-22T13:36:36;11.70;99.90
20698;DHT22;10508;50.956;4.640;2023-02-22T13:52:48;11.60;99.90
20698;DHT22;10508;50.956;4.640;2023-02-22T13:55:23;11.60;99.90
20698;DHT22;10508;50.956;4.640;2023-02-22T13:57:59;11.70;99.90
20698;DHT22;10508;50.956;4.640;2023-02-22T14:13:23;11.50;99.90
20698;DHT22;10508;50.956;4.640;2023-02-22T14:18:23;11.50;99.90
20698;DHT22;10508;50.956;4.640;2023-02-22T14:21:12;11.40;99.90
20698;DHT22;10508;50.956;4.640;2023-02-22T14:23:54;11.40;99.90
20698;DHT22;10508;50.956;4.640;2023-02-22T14:31:32;11.40;99.90
20698;DHT22;10508;50.956;4.640;2023-02-22T14:36:50;11.40;99.90
20698;DHT22;10508;50.956;4.640;2023-02-22T14:39:46;11.30;99.90
20698;DHT22;10508;50.956;4.640;2023-02-22T14:42:30;11.40;99.90
20698;DHT22;10508;50.956;4.640;2023-02-22T14:45:18;11.30;99.90
20698;DHT22;10508;50.956;4.640;2023-02-22T14:48:15;11.40;99.90
20698;DHT22;10508;50.956;4.640;2023-02-22T14:50:58;11.30;99.90
20698;DHT22;10508;50.956;4.640;2023-02-22T15:01:38;11.30;99.90
20698;DHT22;10508;50.956;4.640;2023-02-22T15:04:27;11.30;99.90
20698;DHT22;10508;50.956;4.640;2023-02-22T15:06:57;11.30;99.90
20698;DHT22;10508;50.956;4.640;2023-02-22T15:09:35;11.30;99.90
20698;DHT22;10508;50.956;4.640;2023-02-22T15:14:28;11.00;99.90
20698;DHT22;10508;50.956;4.640;2023-02-22T15:17:02;11.30;99.90
20698;DHT22;10508;50.956;4.640;2023-02-22T15:19:30;11.20;99.90
20698;DHT22;10508;50.956;4.640;2023-02-22T15:21:59;11.30;99.90
20698;DHT22;10508;50.956;4.640;2023-02-22T15:24:30;11.20;99.90
20698;DHT22;10508;50.956;4.640;2023-02-22T15:27:03;11.30;99.90
20698;DHT22;10508;50.956;4.640;2023-02-22T15:29:38;11.20;99.90
20698;DHT22;10508;50.956;4.640;2023-02-22T15:34:54;11.20;99.90
20698;DHT22;10508;50.956;4.640;2023-02-22T15:37:24;11.20;99.90
20698;DHT22;10508;50.956;4.640;2023-02-22T15:39:52;11.10;99.90
20698;DHT22;10508;50.956;4.640;2023-02-22T15:42:29;11.10;99.90
20698;DHT22;10508;50.956;4.640;2023-02-22T15:44:55;11.00;99.90
20698;DHT22;10508;50.956;4.640;2023-02-22T15:47:28;11.00;99.90
20698;DHT22;10508;50.956;4.640;2023-02-22T15:50:16;10.90;99.90
20698;DHT22;10508;50.956;4.640;2023-02-22T15:52:59;10.90;99.90
20698;DHT22;10508;50.956;4.640;2023-02-22T15:55:28;10.90;99.90
20698;DHT22;10508;50.956;4.640;2023-02-22T15:57:58;11.00;99.90
20698;DHT22;10508;50.956;4.640;2023-02-22T16:00:31;10.90;99.90
20698;DHT22;10508;50.956;4.640;2023-02-22T16:03:05;10.80;99.90
20698;DHT22;10508;50.956;4.640;2023-02-22T16:08:21;10.80;99.90
20698;DHT22;10508;50.956;4.640;2023-02-22T16:11:00;10.80;99.90
20698;DHT22;10508;50.956;4.640;2023-02-22T16:13:29;10.80;99.90
20698;DHT22;10508;50.956;4.640;2023-02-22T16:16:04;10.80;99.90
20698;DHT22;10508;50.956;4.640;2023-02-22T16:18:37;10.70;99.90
20698;DHT22;10508;50.956;4.640;2023-02-22T16:21:11;10.70;99.90
20698;DHT22;10508;50.956;4.640;2023-02-22T16:23:49;10.60;99.90
20698;DHT22;10508;50.956;4.640;2023-02-22T16:31:32;10.60;99.90
20698;DHT22;10508;50.956;4.640;2023-02-22T16:34:03;10.60;99.90
20698;DHT22;10508;50.956;4.640;2023-02-22T16:36:42;10.50;99.90
20698;DHT22;10508;50.956;4.640;2023-02-22T16:39:17;10.60;99.90
20698;DHT22;10508;50.956;4.640;2023-02-22T16:41:44;10.50;99.90
20698;DHT22;10508;50.956;4.640;2023-02-22T16:44:13;10.50;99.90
20698;DHT22;10508;50.956;4.640;2023-02-22T16:46:39;10.40;99.90
20698;DHT22;10508;50.956;4.640;2023-02-22T16:49:08;10.30;99.90
20698;DHT22;10508;50.956;4.640;2023-02-22T16:51:40;10.30;99.90
20698;DHT22;10508;50.956;4.640;2023-02-22T16:54:13;10.30;99.90
20698;DHT22;10508;50.956;4.640;2023-02-22T16:56:42;10.30;99.90
20698;DHT22;10508;50.956;4.640;2023-02-22T16:59:11;10.30;99.90
20698;DHT22;10508;50.956;4.640;2023-02-22T17:01:38;10.20;99.90
20698;DHT22;10508;50.956;4.640;2023-02-22T17:04:15;10.20;99.90
20698;DHT22;10508;50.956;4.640;2023-02-22T17:06:42;10.20;99.90
20698;DHT22;10508;50.956;4.640;2023-02-22T17:09:08;10.20;99.90
20698;DHT22;10508;50.956;4.640;2023-02-22T17:11:35;10.20;99.90
20698;DHT22;10508;50.956;4.640;2023-02-22T17:14:01;10.20;99.90
20698;DHT22;10508;50.956;4.640;2023-02-22T17:16:26;10.20;99.90
20698;DHT22;10508;50.956;4.640;2023-02-22T17:18:53;10.10;99.90
20698;DHT22;10508;50.956;4.640;2023-02-22T17:21:18;10.10;99.90
20698;DHT22;10508;50.956;4.640;2023-02-22T17:23:44;10.50;99.90
20698;DHT22;10508;50.956;4.640;2023-02-22T17:26:13;10.20;99.90
20698;DHT22;10508;50.956;4.640;2023-02-22T17:28:39;10.20;99.90
20698;DHT22;10508;50.956;4.640;2023-02-22T17:31:06;10.20;99.90
20698;DHT22;10508;50.956;4.640;2023-02-22T17:33:34;10.10;99.90
20698;DHT22;10508;50.956;4.640;2023-02-22T17:36:02;10.10;99.90
20698;DHT22;10508;50.956;4.640;2023-02-22T17:38:29;10.00;99.90
20698;DHT22;10508;50.956;4.640;2023-02-22T17:40:57;10.10;99.90
20698;DHT22;10508;50.956;4.640;2023-02-22T17:43:24;10.10;99.90
20698;DHT22;10508;50.956;4.640;2023-02-22T17:45:50;10.00;99.90
20698;DHT22;10508;50.956;4.640;2023-02-22T17:48:18;10.00;99.90
20698;DHT22;10508;50.956;4.640;2023-02-22T17:50:45;10.00;99.90
20698;DHT22;10508;50.956;4.640;2023-02-22T17:53:12;10.00;99.90
20698;DHT22;10508;50.956;4.640;2023-02-22T17:55:41;10.10;99.90
20698;DHT22;10508;50.956;4.640;2023-02-22T17:58:09;10.10;99.90
20698;DHT22;10508;50.956;4.640;2023-02-22T18:00:43;9.80;99.90
20698;DHT22;10508;50.956;4.640;2023-02-22T18:03:12;10.10;99.90
20698;DHT22;10508;50.956;4.640;2023-02-22T18:05:41;10.10;99.90
20698;DHT22;10508;50.956;4.640;2023-02-22T18:08:07;10.10;99.90
20698;DHT22;10508;50.956;4.640;2023-02-22T18:10:33;10.00;99.90
20698;DHT22;10508;50.956;4.640;2023-02-22T18:12:59;10.00;99.90
20698;DHT22;10508;50.956;4.640;2023-02-22T18:15:29;10.00;99.90
20698;DHT22;10508;50.956;4.640;2023-02-22T18:17:55;9.90;99.90
20698;DHT22;10508;50.956;4.640;2023-02-22T18:20:21;9.90;99.90
20698;DHT22;10508;50.956;4.640;2023-02-22T18:23:04;9.90;99.90
20698;DHT22;10508;50.956;4.640;2023-02-22T18:25:32;9.90;99.90
20698;DHT22;10508;50.956;4.640;2023-02-22T18:27:58;9.90;99.90
20698;DHT22;10508;50.956;4.640;2023-02-22T18:30:24;9.90;99.90
20698;DHT22;10508;50.956;4.640;2023-02-22T18:32:49;10.00;99.90
20698;DHT22;10508;50.956;4.640;2023-02-22T18:35:15;10.00;99.90
20698;DHT22;10508;50.956;4.640;2023-02-22T18:37:41;9.90;99.90
20698;DHT22;10508;50.956;4.640;2023-02-22T18:40:09;9.90;99.90
20698;DHT22;10508;50.956;4.640;2023-02-22T18:42:36;9.90;99.90
20698;DHT22;10508;50.956;4.640;2023-02-22T18:45:03;9.90;99.90
20698;DHT22;10508;50.956;4.640;2023-02-22T18:47:30;9.90;99.90
20698;DHT22;10508;50.956;4.640;2023-02-22T18:49:56;9.90;99.90